Time;durP1;ratioP1;P1;durP2;ratioP2;P2;SDS_P1;SDS_P2;PMS_P1;PMS_P2;Temp;Humidity;BMP_temperature;BMP_pressure;BME280_temperature;BME280_humidity;BME280_pressure;Samples;Min_cycle;Max_cycle;Signal;HPM_P1;HPM_P2
2021/07/07 00:01:01;;;;;;;4.70;2.42;;;;;;;;;;5023890;28;20583;-70
2021/07/07 00:03:28;;;;;;;4.57;2.55;;;;;;;;;;5024087;28;20048;-70
2021/07/07 00:05:54;;;;;;;7.43;2.53;;;;;;;;;;5024194;28;20075;-70
2021/07/07 00:08:20;;;;;;;5.43;2.35;;;;;;;;;;5022728;28;20136;-70
2021/07/07 00:10:46;;;;;;;5.25;2.75;;;;;;;;;;5024122;28;20053;-70
2021/07/07 00:13:13;;;;;;;7.20;2.63;;;;;;;;;;5023899;28;20122;-70
2021/07/07 00:15:39;;;;;;;4.88;2.60;;;;;;;;;;5024061;28;20041;-69
2021/07/07 00:18:10;;;;;;;4.63;2.92;;;;;;;;;;5024196;28;20022;-70
2021/07/07 00:20:42;;;;;;;4.30;2.63;;;;;;;;;;5018986;28;20083;-70
2021/07/07 00:23:09;;;;;;;6.53;3.03;;;;;;;;;;5022370;28;20060;-70
2021/07/07 00:25:35;;;;;;;8.75;2.70;;;;;;;;;;5024101;28;20534;-70
2021/07/07 00:28:01;;;;;;;3.72;2.50;;;;;;;;;;5023376;28;20106;-70
2021/07/07 00:30:27;;;;;;;6.63;2.50;;;;;;;;;;5023785;28;20034;-70
2021/07/07 00:32:54;;;;;;;10.10;2.80;;;;;;;;;;5023594;28;20176;-70
2021/07/07 00:35:20;;;;;;;23.80;3.95;;;;;;;;;;5023215;28;20112;-70
2021/07/07 00:37:46;;;;;;;4.50;2.72;;;;;;;;;;5023468;28;20516;-70
2021/07/07 00:40:13;;;;;;;12.77;3.75;;;;;;;;;;5025820;28;20112;-70
2021/07/07 00:42:39;;;;;;;9.07;2.90;;;;;;;;;;5026394;28;20021;-70
2021/07/07 00:45:06;;;;;;;10.63;3.42;;;;;;;;;;5026121;28;20100;-70
2021/07/07 00:47:32;;;;;;;4.82;2.85;;;;;;;;;;5024493;28;20072;-70
2021/07/07 00:49:58;;;;;;;5.65;3.00;;;;;;;;;;5026069;28;20033;-70
2021/07/07 00:52:24;;;;;;;7.45;3.00;;;;;;;;;;5024779;28;20493;-70
2021/07/07 00:54:50;;;;;;;7.57;2.63;;;;;;;;;;5026052;28;20025;-70
2021/07/07 00:57:17;;;;;;;9.48;3.33;;;;;;;;;;5026032;28;20049;-70
2021/07/07 00:59:49;;;;;;;10.63;3.30;;;;;;;;;;5024723;28;20091;-70
2021/07/07 01:02:17;;;;;;;9.00;2.78;;;;;;;;;;5025921;28;20017;-70
2021/07/07 01:04:44;;;;;;;7.95;2.83;;;;;;;;;;5027020;28;20112;-70
2021/07/07 01:07:10;;;;;;;6.75;3.08;;;;;;;;;;5029751;28;20043;-70
2021/07/07 01:09:36;;;;;;;6.78;2.65;;;;;;;;;;5026736;28;20536;-70
2021/07/07 01:12:03;;;;;;;9.88;2.88;;;;;;;;;;5022190;28;20086;-70
2021/07/07 01:14:29;;;;;;;6.95;3.05;;;;;;;;;;5028111;28;20100;-70
2021/07/07 01:16:55;;;;;;;8.23;2.63;;;;;;;;;;5029657;28;20025;-70
2021/07/07 01:19:22;;;;;;;6.82;3.50;;;;;;;;;;5030151;28;20028;-70
2021/07/07 01:21:49;;;;;;;7.03;3.28;;;;;;;;;;5029921;28;20029;-70
2021/07/07 01:24:15;;;;;;;11.40;3.53;;;;;;;;;;5025623;28;20052;-70
2021/07/07 01:26:42;;;;;;;5.18;3.00;;;;;;;;;;5029634;28;20108;-70
2021/07/07 01:29:08;;;;;;;8.68;2.90;;;;;;;;;;5029021;28;20040;-70
2021/07/07 01:31:35;;;;;;;6.55;3.00;;;;;;;;;;5029515;28;20032;-70
2021/07/07 01:34:01;;;;;;;4.60;2.80;;;;;;;;;;5027890;28;20025;-70
2021/07/07 01:36:27;;;;;;;4.88;2.55;;;;;;;;;;5029267;28;20065;-70
2021/07/07 01:38:53;;;;;;;5.70;2.85;;;;;;;;;;5029639;28;20017;-70
2021/07/07 01:41:20;;;;;;;10.88;3.60;;;;;;;;;;5029171;28;20018;-70
2021/07/07 01:43:46;;;;;;;6.63;3.03;;;;;;;;;;5027515;28;20021;-70
2021/07/07 01:46:12;;;;;;;4.97;2.90;;;;;;;;;;5029327;28;20030;-70
2021/07/07 01:48:38;;;;;;;6.72;2.88;;;;;;;;;;5027567;28;20030;-70
2021/07/07 01:51:04;;;;;;;6.13;2.90;;;;;;;;;;5029191;28;20048;-70
2021/07/07 01:53:31;;;;;;;3.67;2.45;;;;;;;;;;5028880;28;20037;-70
2021/07/07 01:55:57;;;;;;;6.72;3.00;;;;;;;;;;5029165;28;20037;-70
2021/07/07 01:58:23;;;;;;;4.55;2.80;;;;;;;;;;5027961;28;20024;-70
2021/07/07 02:00:49;;;;;;;7.90;3.22;;;;;;;;;;5028953;28;20037;-70
2021/07/07 02:03:16;;;;;;;8.55;3.05;;;;;;;;;;5027560;28;20418;-70
2021/07/07 02:05:42;;;;;;;4.25;2.78;;;;;;;;;;5028856;28;20136;-70
2021/07/07 02:08:09;;;;;;;5.18;2.88;;;;;;;;;;5028825;28;20033;-70
2021/07/07 02:10:36;;;;;;;6.22;3.40;;;;;;;;;;5028387;28;20029;-70
2021/07/07 02:13:02;;;;;;;7.63;3.13;;;;;;;;;;5027358;28;20033;-70
2021/07/07 02:15:33;;;;;;;5.60;3.25;;;;;;;;;;5028181;28;20048;-70
2021/07/07 02:18:00;;;;;;;5.18;3.60;;;;;;;;;;5027713;28;20041;-70
2021/07/07 02:20:27;;;;;;;5.15;3.45;;;;;;;;;;5028501;28;20030;-70
2021/07/07 02:22:53;;;;;;;6.40;3.40;;;;;;;;;;5028646;28;20489;-70
2021/07/07 02:25:28;;;;;;;4.85;3.28;;;;;;;;;;5027174;28;20045;-70
2021/07/07 02:27:55;;;;;;;6.28;3.20;;;;;;;;;;5028432;28;20686;-70
2021/07/07 02:30:23;;;;;;;6.40;3.22;;;;;;;;;;5028846;28;20029;-70
2021/07/07 02:32:49;;;;;;;4.00;3.28;;;;;;;;;;5024114;28;20033;-70
2021/07/07 02:35:17;;;;;;;4.57;3.17;;;;;;;;;;5028129;28;20477;-70
2021/07/07 02:37:44;;;;;;;6.43;3.78;;;;;;;;;;5028175;28;20025;-70
2021/07/07 02:40:11;;;;;;;7.20;3.80;;;;;;;;;;5026522;28;20025;-70
2021/07/07 02:42:38;;;;;;;7.57;3.67;;;;;;;;;;5028234;28;20029;-70
2021/07/07 02:45:06;;;;;;;6.65;4.10;;;;;;;;;;5028258;28;20121;-70
2021/07/07 02:47:32;;;;;;;8.82;4.07;;;;;;;;;;5027914;28;20045;-70
2021/07/07 02:49:58;;;;;;;8.23;4.22;;;;;;;;;;5027187;28;20069;-70
2021/07/07 02:52:24;;;;;;;9.52;3.80;;;;;;;;;;5026427;28;20495;-70
2021/07/07 02:54:50;;;;;;;6.05;3.88;;;;;;;;;;5027824;28;20108;-70
2021/07/07 02:57:17;;;;;;;7.20;3.90;;;;;;;;;;5028328;28;20052;-70
2021/07/07 02:59:43;;;;;;;9.05;4.00;;;;;;;;;;5026268;28;20029;-70
2021/07/07 03:02:10;;;;;;;9.20;4.38;;;;;;;;;;5022853;28;20092;-70
2021/07/07 03:04:36;;;;;;;6.10;4.30;;;;;;;;;;5021088;28;20031;-70
2021/07/07 03:07:06;;;;;;;7.72;4.43;;;;;;;;;;5022948;28;20591;-70
2021/07/07 03:09:32;;;;;;;8.68;4.20;;;;;;;;;;5022422;28;20026;-70
2021/07/07 03:11:59;;;;;;;8.27;4.05;;;;;;;;;;5023030;28;20452;-70
2021/07/07 03:14:25;;;;;;;6.82;4.40;;;;;;;;;;5021452;28;20041;-70
2021/07/07 03:16:51;;;;;;;8.20;4.50;;;;;;;;;;5022320;28;20037;-70
2021/07/07 03:19:17;;;;;;;9.95;4.30;;;;;;;;;;5022959;28;20039;-70
2021/07/07 03:21:43;;;;;;;7.32;3.78;;;;;;;;;;5021169;28;20183;-70
2021/07/07 03:24:10;;;;;;;7.50;3.72;;;;;;;;;;5022381;28;20025;-70
2021/07/07 03:26:37;;;;;;;8.75;4.10;;;;;;;;;;5022928;28;20037;-70
2021/07/07 03:29:03;;;;;;;7.38;3.83;;;;;;;;;;5022315;28;20477;-70
2021/07/07 03:31:29;;;;;;;6.75;3.65;;;;;;;;;;5022687;28;20116;-70
2021/07/07 03:33:56;;;;;;;5.30;3.38;;;;;;;;;;5020470;28;20537;-70
2021/07/07 03:36:22;;;;;;;5.55;3.55;;;;;;;;;;5022473;28;20029;-70
2021/07/07 03:38:48;;;;;;;7.13;3.58;;;;;;;;;;5022204;28;20384;-70
2021/07/07 03:41:14;;;;;;;5.50;3.80;;;;;;;;;;5022263;28;20114;-70
2021/07/07 03:43:40;;;;;;;5.10;4.05;;;;;;;;;;5021202;28;20473;-70
2021/07/07 03:46:06;;;;;;;13.70;3.88;;;;;;;;;;5022001;28;20040;-70
2021/07/07 03:48:33;;;;;;;10.95;4.50;;;;;;;;;;5022229;28;20029;-70
2021/07/07 03:50:59;;;;;;;6.05;3.78;;;;;;;;;;5021830;28;20036;-70
2021/07/07 03:53:25;;;;;;;6.63;3.63;;;;;;;;;;5022692;28;20442;-69
2021/07/07 03:55:51;;;;;;;6.15;3.58;;;;;;;;;;5020651;28;20064;-70
2021/07/07 03:58:17;;;;;;;7.43;3.40;;;;;;;;;;5021858;28;20034;-70
2021/07/07 04:00:44;;;;;;;5.97;3.63;;;;;;;;;;5022294;28;20056;-70
2021/07/07 04:03:11;;;;;;;6.00;3.70;;;;;;;;;;5021526;28;20473;-70
2021/07/07 04:05:38;;;;;;;6.45;3.88;;;;;;;;;;5021891;28;20033;-70
2021/07/07 04:08:04;;;;;;;6.13;4.25;;;;;;;;;;5020111;28;20049;-70
2021/07/07 04:10:31;;;;;;;7.15;3.90;;;;;;;;;;5021578;28;20034;-70
2021/07/07 04:12:57;;;;;;;5.82;3.60;;;;;;;;;;5022149;28;20504;-69
2021/07/07 04:15:23;;;;;;;14.15;3.50;;;;;;;;;;5021563;28;20120;-70
2021/07/07 04:17:49;;;;;;;4.65;3.03;;;;;;;;;;5021701;28;20044;-70
2021/07/07 04:20:18;;;;;;;6.90;3.42;;;;;;;;;;5019770;28;20009;-70
2021/07/07 04:22:44;;;;;;;4.20;3.30;;;;;;;;;;5022034;28;20026;-70
2021/07/07 04:25:12;;;;;;;4.55;3.75;;;;;;;;;;5021414;28;20386;-70
2021/07/07 04:27:38;;;;;;;9.23;3.85;;;;;;;;;;5021413;28;20497;-70
2021/07/07 04:30:08;;;;;;;5.50;3.95;;;;;;;;;;5021962;28;20013;-70
2021/07/07 04:32:35;;;;;;;6.53;4.40;;;;;;;;;;5019923;28;20033;-70
2021/07/07 04:35:01;;;;;;;8.55;4.07;;;;;;;;;;5021598;28;20087;-70
2021/07/07 04:37:27;;;;;;;8.13;4.70;;;;;;;;;;5020923;28;20436;-70
2021/07/07 04:39:55;;;;;;;5.63;4.03;;;;;;;;;;5019576;28;20029;-70
2021/07/07 04:42:22;;;;;;;10.05;4.10;;;;;;;;;;5021380;28;20443;-70
2021/07/07 04:44:48;;;;;;;7.75;4.68;;;;;;;;;;5021596;28;20025;-70
2021/07/07 04:47:14;;;;;;;9.45;5.30;;;;;;;;;;5021709;28;20452;-70
2021/07/07 04:49:40;;;;;;;12.38;6.00;;;;;;;;;;5021005;28;20041;-70
2021/07/07 04:52:06;;;;;;;9.63;5.35;;;;;;;;;;5021426;28;20031;-70
2021/07/07 04:54:32;;;;;;;16.75;5.18;;;;;;;;;;5019093;28;20025;-70
2021/07/07 04:56:59;;;;;;;7.40;4.80;;;;;;;;;;5021089;28;20040;-70
2021/07/07 04:59:25;;;;;;;7.38;5.45;;;;;;;;;;5020830;28;20226;-70
2021/07/07 05:01:51;;;;;;;10.48;4.95;;;;;;;;;;5021510;28;20022;-73
2021/07/07 05:04:18;;;;;;;18.05;4.88;;;;;;;;;;5021342;28;20032;-74
2021/07/07 05:06:44;;;;;;;7.47;5.40;;;;;;;;;;5018127;28;20569;-72
2021/07/07 05:09:10;;;;;;;7.97;4.55;;;;;;;;;;5020013;28;20033;-73
2021/07/07 05:11:36;;;;;;;10.98;4.95;;;;;;;;;;5021034;28;20097;-72
2021/07/07 05:14:03;;;;;;;10.73;5.13;;;;;;;;;;5021271;28;20333;-73
2021/07/07 05:16:29;;;;;;;9.55;5.13;;;;;;;;;;5019507;28;20133;-75
2021/07/07 05:18:55;;;;;;;11.63;5.10;;;;;;;;;;5016968;28;20132;-73
2021/07/07 05:21:22;;;;;;;8.32;4.90;;;;;;;;;;5020036;28;20033;-73
2021/07/07 05:23:48;;;;;;;7.53;4.75;;;;;;;;;;5020812;28;20036;-73
2021/07/07 05:26:14;;;;;;;8.45;5.65;;;;;;;;;;5019785;28;20025;-76
2021/07/07 05:28:40;;;;;;;16.38;6.25;;;;;;;;;;5019069;28;20038;-73
2021/07/07 05:31:07;;;;;;;6.40;4.50;;;;;;;;;;5020832;28;20026;-79
2021/07/07 05:33:35;;;;;;;12.23;6.70;;;;;;;;;;5020884;28;20061;-78
2021/07/07 05:36:06;;;;;;;10.93;6.32;;;;;;;;;;5019187;28;20491;-75
2021/07/07 05:38:32;;;;;;;7.47;5.70;;;;;;;;;;5021065;28;20018;-75
2021/07/07 05:40:59;;;;;;;7.78;4.75;;;;;;;;;;5019752;28;20033;-75
2021/07/07 05:43:26;;;;;;;24.85;6.40;;;;;;;;;;5018561;28;20582;-75
2021/07/07 05:45:52;;;;;;;10.40;5.22;;;;;;;;;;5020528;28;20095;-75
2021/07/07 05:48:19;;;;;;;11.45;5.55;;;;;;;;;;5021006;28;20041;-75
2021/07/07 05:50:45;;;;;;;8.32;4.75;;;;;;;;;;5012552;28;20029;-75
2021/07/07 05:53:11;;;;;;;11.75;5.13;;;;;;;;;;5012521;28;20041;-74
2021/07/07 05:55:37;;;;;;;7.65;4.60;;;;;;;;;;5020337;28;20029;-75
2021/07/07 05:58:04;;;;;;;10.38;4.80;;;;;;;;;;5024161;28;20029;-75
2021/07/07 06:00:30;;;;;;;7.57;4.45;;;;;;;;;;5024784;28;20033;-77
2021/07/07 06:02:58;;;;;;;7.80;4.47;;;;;;;;;;5024054;28;20026;-76
2021/07/07 06:05:24;;;;;;;7.72;4.15;;;;;;;;;;5022980;28;20041;-73
2021/07/07 06:07:51;;;;;;;6.93;4.03;;;;;;;;;;5024190;28;20139;-74
2021/07/07 06:10:23;;;;;;;6.82;4.35;;;;;;;;;;5017552;28;20026;-74
2021/07/07 06:12:49;;;;;;;8.85;4.88;;;;;;;;;;5016762;28;20021;-78
2021/07/07 06:15:15;;;;;;;5.18;3.75;;;;;;;;;;5011354;28;20128;-77
2021/07/07 06:17:42;;;;;;;9.85;4.30;;;;;;;;;;5011772;28;20049;-73
2021/07/07 06:20:09;;;;;;;11.60;4.35;;;;;;;;;;5021444;28;20026;-75
2021/07/07 06:22:37;;;;;;;8.57;4.63;;;;;;;;;;5013720;28;20025;-73
2021/07/07 06:25:04;;;;;;;12.02;4.45;;;;;;;;;;5013165;28;20161;-78
2021/07/07 06:27:30;;;;;;;5.55;3.70;;;;;;;;;;5020648;28;20052;-78
2021/07/07 06:29:56;;;;;;;7.13;4.53;;;;;;;;;;5010824;28;20026;-78
2021/07/07 06:32:22;;;;;;;12.27;4.60;;;;;;;;;;5005890;28;20014;-74
2021/07/07 06:34:48;;;;;;;5.95;4.60;;;;;;;;;;5007027;28;20553;-76
2021/07/07 06:37:15;;;;;;;7.32;4.65;;;;;;;;;;5006652;28;20514;-75
2021/07/07 06:39:41;;;;;;;8.30;4.15;;;;;;;;;;5007482;28;20014;-76
2021/07/07 06:42:07;;;;;;;8.07;3.78;;;;;;;;;;5005868;28;20391;-75
2021/07/07 06:44:33;;;;;;;6.38;3.90;;;;;;;;;;5018966;28;20022;-75
2021/07/07 06:46:59;;;;;;;7.18;3.80;;;;;;;;;;5007462;28;20032;-74
2021/07/07 06:49:26;;;;;;;7.93;4.00;;;;;;;;;;5016365;28;20029;-75
2021/07/07 06:51:52;;;;;;;6.68;3.67;;;;;;;;;;5006452;28;20068;-76
2021/07/07 06:54:18;;;;;;;6.72;3.45;;;;;;;;;;5019186;28;20544;-75
2021/07/07 06:56:45;;;;;;;6.93;3.50;;;;;;;;;;5003533;28;20338;-72
2021/07/07 06:59:11;;;;;;;5.10;3.30;;;;;;;;;;5003225;28;20410;-74
2021/07/07 07:01:37;;;;;;;6.57;3.35;;;;;;;;;;5004843;28;20544;-72
2021/07/07 07:04:03;;;;;;;8.15;3.70;;;;;;;;;;5003117;28;20029;-73
2021/07/07 07:06:29;;;;;;;6.95;3.33;;;;;;;;;;5002643;28;20026;-73
2021/07/07 07:08:56;;;;;;;5.03;3.35;;;;;;;;;;5004974;28;20037;-72
2021/07/07 07:11:22;;;;;;;6.38;3.55;;;;;;;;;;5005260;28;20822;-72
2021/07/07 07:13:48;;;;;;;10.15;3.58;;;;;;;;;;5003373;28;20068;-78
2021/07/07 07:16:14;;;;;;;6.90;3.15;;;;;;;;;;5014339;28;20095;-75
2021/07/07 07:18:41;;;;;;;9.25;3.70;;;;;;;;;;5009397;28;20050;-72
2021/07/07 07:21:07;;;;;;;7.43;3.28;;;;;;;;;;5013197;28;20938;-73
2021/07/07 07:23:34;;;;;;;7.25;3.63;;;;;;;;;;5012643;28;20038;-73
2021/07/07 07:26:00;;;;;;;5.40;3.38;;;;;;;;;;5012683;28;20034;-74
2021/07/07 07:28:27;;;;;;;8.52;3.90;;;;;;;;;;5010452;28;20045;-74
2021/07/07 07:30:54;;;;;;;7.22;4.13;;;;;;;;;;5004855;28;20025;-73
2021/07/07 07:33:21;;;;;;;7.85;3.17;;;;;;;;;;5012713;28;20034;-73
2021/07/07 07:35:47;;;;;;;5.95;3.33;;;;;;;;;;5022555;28;20022;-72
2021/07/07 07:38:26;;;;;;;6.13;3.35;;;;;;;;;;5022253;28;20026;-73
2021/07/07 07:40:52;;;;;;;4.25;2.67;;;;;;;;;;5022232;28;20025;-72
2021/07/07 07:43:22;;;;;;;5.50;3.28;;;;;;;;;;5020724;28;20033;-73
2021/07/07 07:45:52;;;;;;;4.32;3.05;;;;;;;;;;5018985;28;20087;-73
2021/07/07 07:48:19;;;;;;;5.72;2.88;;;;;;;;;;5018498;28;20197;-72
2021/07/07 07:50:45;;;;;;;5.70;3.45;;;;;;;;;;5021970;28;20461;-73
2021/07/07 07:53:11;;;;;;;6.80;3.22;;;;;;;;;;5021327;28;20022;-72
2021/07/07 07:55:38;;;;;;;4.18;3.10;;;;;;;;;;5021727;28;20477;-72
2021/07/07 07:58:04;;;;;;;8.60;3.13;;;;;;;;;;5020695;28;20025;-73
2021/07/07 08:00:30;;;;;;;6.10;3.00;;;;;;;;;;5021958;28;20029;-72
2021/07/07 08:02:57;;;;;;;7.68;3.60;;;;;;;;;;5020861;28;20025;-73
2021/07/07 08:05:23;;;;;;;9.20;3.67;;;;;;;;;;5021330;28;20029;-72
2021/07/07 08:07:50;;;;;;;6.78;3.13;;;;;;;;;;5020309;28;20389;-72
2021/07/07 08:10:19;;;;;;;4.25;3.00;;;;;;;;;;5021513;28;20099;-72
2021/07/07 08:12:45;;;;;;;5.70;3.10;;;;;;;;;;5021105;28;20481;-72
2021/07/07 08:15:11;;;;;;;8.40;3.38;;;;;;;;;;5019633;28;20591;-72
2021/07/07 08:17:38;;;;;;;6.05;3.88;;;;;;;;;;5019451;28;20036;-72
2021/07/07 08:20:08;;;;;;;5.22;3.58;;;;;;;;;;5021415;28;20117;-73
2021/07/07 08:22:35;;;;;;;6.65;3.60;;;;;;;;;;5021704;28;20048;-73
2021/07/07 08:25:01;;;;;;;5.10;3.40;;;;;;;;;;5021513;28;20050;-73
2021/07/07 08:27:27;;;;;;;4.05;3.15;;;;;;;;;;5019279;28;20064;-72
2021/07/07 08:29:53;;;;;;;4.30;3.33;;;;;;;;;;5021823;28;20033;-72
2021/07/07 08:32:19;;;;;;;7.72;3.63;;;;;;;;;;5020859;28;20474;-73
2021/07/07 08:34:45;;;;;;;9.20;3.50;;;;;;;;;;5019823;28;20029;-73
2021/07/07 08:37:15;;;;;;;5.10;3.30;;;;;;;;;;5021000;28;20029;-73
2021/07/07 08:39:41;;;;;;;6.55;3.13;;;;;;;;;;5011685;28;20041;-74
2021/07/07 08:42:07;;;;;;;6.97;3.38;;;;;;;;;;5000659;28;20033;-73
2021/07/07 08:44:34;;;;;;;8.30;3.70;;;;;;;;;;5000857;28;20030;-74
2021/07/07 08:47:01;;;;;;;5.00;3.33;;;;;;;;;;5003126;28;20121;-74
2021/07/07 08:49:27;;;;;;;6.45;3.38;;;;;;;;;;5005104;28;20218;-72
2021/07/07 08:51:53;;;;;;;6.38;3.40;;;;;;;;;;5001045;28;20052;-72
2021/07/07 08:54:19;;;;;;;4.22;3.38;;;;;;;;;;5001362;28;20510;-74
2021/07/07 08:56:46;;;;;;;7.80;3.33;;;;;;;;;;5007294;28;20030;-74
2021/07/07 08:59:13;;;;;;;4.45;3.28;;;;;;;;;;5021159;28;20029;-75
2021/07/07 09:01:58;;;;;;;6.13;3.42;;;;;;;;;;5020999;28;20172;-75
2021/07/07 09:04:32;;;;;;;5.47;3.17;;;;;;;;;;5020624;28;20037;-73
2021/07/07 09:06:59;;;;;;;6.05;3.35;;;;;;;;;;5009717;28;20033;-73
2021/07/07 09:09:41;;;;;;;4.75;3.53;;;;;;;;;;5019112;28;20033;-73
2021/07/07 09:12:27;;;;;;;8.25;3.65;;;;;;;;;;5010539;28;20026;-73
2021/07/07 09:15:11;;;;;;;5.93;3.38;;;;;;;;;;5019554;28;20780;-73
2021/07/07 09:17:51;;;;;;;5.60;3.28;;;;;;;;;;5020279;28;20043;-75
2021/07/07 09:20:18;;;;;;;3.88;3.47;;;;;;;;;;5019540;28;20116;-72
2021/07/07 09:22:45;;;;;;;6.15;3.33;;;;;;;;;;5020643;28;20128;-73
2021/07/07 09:25:14;;;;;;;6.30;3.67;;;;;;;;;;5020854;28;20172;-73
2021/07/07 09:27:40;;;;;;;5.35;3.58;;;;;;;;;;5024071;28;20041;-74
2021/07/07 09:30:08;;;;;;;3.80;3.13;;;;;;;;;;5022950;28;20374;-73
2021/07/07 09:32:41;;;;;;;5.88;3.50;;;;;;;;;;5024148;28;20032;-73
2021/07/07 09:35:07;;;;;;;6.10;2.90;;;;;;;;;;5024598;28;20025;-73
2021/07/07 09:37:37;;;;;;;5.18;3.50;;;;;;;;;;5022469;28;20035;-75
2021/07/07 09:40:04;;;;;;;5.10;3.50;;;;;;;;;;5024542;28;20025;-73
2021/07/07 09:42:34;;;;;;;7.68;3.58;;;;;;;;;;5020793;28;20064;-75
2021/07/07 09:45:01;;;;;;;7.30;3.50;;;;;;;;;;5023886;28;20026;-73
2021/07/07 09:47:28;;;;;;;7.97;4.25;;;;;;;;;;5023456;28;20257;-73
2021/07/07 09:49:55;;;;;;;9.10;3.53;;;;;;;;;;5011530;28;20013;-75
2021/07/07 09:52:22;;;;;;;5.00;3.20;;;;;;;;;;5017944;28;20095;-75
2021/07/07 09:54:49;;;;;;;10.73;3.70;;;;;;;;;;5024031;28;20083;-73
2021/07/07 09:57:16;;;;;;;5.25;3.20;;;;;;;;;;5024091;28;20029;-74
2021/07/07 09:59:42;;;;;;;5.72;3.85;;;;;;;;;;5024181;28;20021;-72
2021/07/07 10:02:09;;;;;;;6.47;3.58;;;;;;;;;;5024208;28;20104;-74
2021/07/07 10:04:39;;;;;;;5.03;3.05;;;;;;;;;;5022098;28;20018;-73
2021/07/07 10:07:07;;;;;;;6.73;3.50;;;;;;;;;;5023495;28;20033;-73
2021/07/07 10:09:34;;;;;;;8.40;3.70;;;;;;;;;;5023517;28;20532;-73
2021/07/07 10:12:02;;;;;;;3.97;3.20;;;;;;;;;;5023677;28;20030;-74
2021/07/07 10:14:28;;;;;;;8.93;4.13;;;;;;;;;;5021901;28;20045;-74
2021/07/07 10:16:55;;;;;;;5.53;3.40;;;;;;;;;;5023787;28;20108;-74
2021/07/07 10:19:22;;;;;;;4.22;3.58;;;;;;;;;;5023544;28;20041;-73
2021/07/07 10:21:48;;;;;;;5.00;3.67;;;;;;;;;;5015927;28;20065;-73
2021/07/07 10:24:19;;;;;;;5.88;3.42;;;;;;;;;;5021302;28;20021;-74
2021/07/07 10:26:46;;;;;;;4.72;3.50;;;;;;;;;;5023247;28;20052;-73
2021/07/07 10:29:13;;;;;;;7.38;3.67;;;;;;;;;;5023078;28;20124;-73
2021/07/07 10:31:52;;;;;;;9.45;3.80;;;;;;;;;;5020762;28;20244;-74
2021/07/07 10:34:22;;;;;;;8.57;3.60;;;;;;;;;;5004190;28;20401;-73
2021/07/07 10:36:48;;;;;;;9.00;3.17;;;;;;;;;;5003118;28;20470;-72
2021/07/07 10:39:15;;;;;;;5.43;3.60;;;;;;;;;;5010489;28;20402;-73
2021/07/07 10:41:41;;;;;;;6.68;3.17;;;;;;;;;;5003197;28;20056;-73
2021/07/07 10:44:09;;;;;;;7.25;3.60;;;;;;;;;;5011017;28;20446;-73
2021/07/07 10:46:54;;;;;;;4.97;3.25;;;;;;;;;;5007465;28;20110;-73
2021/07/07 10:49:27;;;;;;;4.95;3.05;;;;;;;;;;5018380;28;20465;-73
2021/07/07 10:51:54;;;;;;;9.30;3.95;;;;;;;;;;5023061;28;20017;-73
2021/07/07 10:54:22;;;;;;;8.00;3.50;;;;;;;;;;5022384;28;20084;-74
2021/07/07 10:56:48;;;;;;;4.93;3.35;;;;;;;;;;5023163;28;20112;-73
2021/07/07 10:59:47;;;;;;;8.35;3.67;;;;;;;;;;5021374;28;20033;-74
2021/07/07 11:02:16;;;;;;;7.88;3.60;;;;;;;;;;5010165;28;20037;-73
2021/07/07 11:04:44;;;;;;;4.57;3.58;;;;;;;;;;5022382;28;20389;-73
2021/07/07 11:07:22;;;;;;;4.05;3.08;;;;;;;;;;5017076;28;20033;-73
2021/07/07 11:09:52;;;;;;;4.60;2.97;;;;;;;;;;5012370;28;20044;-78
2021/07/07 11:12:20;;;;;;;5.40;3.53;;;;;;;;;;5022142;28;20025;-76
2021/07/07 11:15:18;;;;;;;5.43;3.42;;;;;;;;;;5019831;28;20116;-76
2021/07/07 11:17:48;;;;;;;5.07;2.78;;;;;;;;;;4997518;28;20362;-79
2021/07/07 11:20:16;;;;;;;8.13;3.20;;;;;;;;;;5021472;28;20029;-73
2021/07/07 11:22:43;;;;;;;3.55;3.03;;;;;;;;;;5022442;28;20017;-72
2021/07/07 11:25:11;;;;;;;4.40;3.22;;;;;;;;;;5021488;28;20072;-73
2021/07/07 11:27:38;;;;;;;5.05;2.90;;;;;;;;;;5020049;28;20048;-73
2021/07/07 11:30:05;;;;;;;3.33;2.90;;;;;;;;;;5021714;28;20035;-74
2021/07/07 11:32:36;;;;;;;7.68;2.95;;;;;;;;;;5021599;28;20048;-73
2021/07/07 11:35:04;;;;;;;8.57;3.50;;;;;;;;;;5021597;28;20590;-73
2021/07/07 11:37:32;;;;;;;4.32;2.85;;;;;;;;;;5020065;28;20555;-73
2021/07/07 11:40:01;;;;;;;5.03;3.15;;;;;;;;;;5019837;28;20535;-74
2021/07/07 11:42:27;;;;;;;5.78;3.30;;;;;;;;;;5021700;28;20029;-75
2021/07/07 11:44:53;;;;;;;4.78;3.08;;;;;;;;;;5021031;28;20021;-72
2021/07/07 11:47:35;;;;;;;5.75;3.10;;;;;;;;;;5025865;28;20108;-75
2021/07/07 11:50:08;;;;;;;4.82;2.95;;;;;;;;;;5011855;28;20032;-73
2021/07/07 11:52:51;;;;;;;7.13;3.08;;;;;;;;;;5020304;28;20030;-74
2021/07/07 11:55:17;;;;;;;6.38;3.00;;;;;;;;;;5014905;28;20160;-76
2021/07/07 11:57:43;;;;;;;3.80;2.70;;;;;;;;;;5021443;28;20874;-75
2021/07/07 12:00:10;;;;;;;6.57;3.00;;;;;;;;;;5019858;28;20060;-73
2021/07/07 12:02:42;;;;;;;6.18;3.35;;;;;;;;;;5021547;28;20029;-75
2021/07/07 12:05:08;;;;;;;6.40;3.55;;;;;;;;;;5020029;28;20036;-73
2021/07/07 12:07:34;;;;;;;5.60;3.38;;;;;;;;;;5019817;28;20482;-73
2021/07/07 12:10:00;;;;;;;8.07;3.40;;;;;;;;;;5020449;28;20112;-73
2021/07/07 12:12:29;;;;;;;4.05;3.50;;;;;;;;;;5021060;28;20025;-74
2021/07/07 12:14:55;;;;;;;6.05;3.47;;;;;;;;;;5021149;28;20151;-73
2021/07/07 12:17:21;;;;;;;7.10;3.85;;;;;;;;;;5018245;28;20108;-73
2021/07/07 12:19:50;;;;;;;6.32;3.83;;;;;;;;;;5002917;28;20132;-73
2021/07/07 12:22:20;;;;;;;5.47;3.38;;;;;;;;;;5009304;28;20033;-74
2021/07/07 12:24:47;;;;;;;7.13;3.80;;;;;;;;;;5014107;28;20033;-75
2021/07/07 12:27:14;;;;;;;6.50;3.45;;;;;;;;;;5006260;28;20114;-76
2021/07/07 12:29:42;;;;;;;7.95;3.47;;;;;;;;;;5012752;28;20037;-76
2021/07/07 12:32:11;;;;;;;9.98;3.20;;;;;;;;;;5003965;28;20022;-75
2021/07/07 12:34:39;;;;;;;5.70;3.25;;;;;;;;;;5014408;28;20025;-75
2021/07/07 12:37:09;;;;;;;6.82;3.38;;;;;;;;;;5009904;28;20618;-74
2021/07/07 12:39:40;;;;;;;6.47;3.15;;;;;;;;;;5016663;28;20032;-75
2021/07/07 12:42:15;;;;;;;;;;;;;;;;;;5010818;28;20497;-74
2021/07/07 12:44:42;;;;;;;4.80;3.15;;;;;;;;;;5020034;28;19909;-75
2021/07/07 12:47:19;;;;;;;5.00;3.10;;;;;;;;;;5021026;28;20042;-75
2021/07/07 12:49:55;;;;;;;6.10;3.10;;;;;;;;;;5020327;28;20030;-75
2021/07/07 12:52:25;;;;;;;5.72;2.92;;;;;;;;;;5020503;28;20022;-74
2021/07/07 12:55:11;;;;;;;4.80;3.10;;;;;;;;;;5018699;28;20021;-74
2021/07/07 12:58:06;;;;;;;6.28;3.10;;;;;;;;;;5020682;28;20044;-74
2021/07/07 13:00:33;;;;;;;6.88;3.22;;;;;;;;;;5020873;28;20079;-72
2021/07/07 13:03:06;;;;;;;3.88;3.05;;;;;;;;;;5023241;28;20031;-72
2021/07/07 13:06:00;;;;;;;5.55;3.30;;;;;;;;;;5024952;28;20108;-72
2021/07/07 13:08:42;;;;;;;5.57;3.05;;;;;;;;;;5023906;28;20055;-72
2021/07/07 13:11:16;;;;;;;3.67;3.05;;;;;;;;;;5024693;28;20037;-72
2021/07/07 13:13:43;;;;;;;4.10;2.75;;;;;;;;;;5023038;28;20499;-71
2021/07/07 13:16:41;;;;;;;3.47;3.03;;;;;;;;;;5023093;28;20655;-72
2021/07/07 13:19:12;;;;;;;5.07;3.13;;;;;;;;;;5011795;28;20052;-71
2021/07/07 13:21:41;;;;;;;3.17;2.70;;;;;;;;;;5024620;28;20030;-71
2021/07/07 13:24:09;;;;;;;6.65;3.17;;;;;;;;;;5023066;28;20281;-71
2021/07/07 13:26:39;;;;;;;7.03;3.67;;;;;;;;;;5023710;28;20085;-72
2021/07/07 13:29:32;;;;;;;8.93;3.33;;;;;;;;;;5021880;28;20033;-72
2021/07/07 13:31:58;;;;;;;4.78;3.20;;;;;;;;;;5022253;28;20106;-71
2021/07/07 13:34:25;;;;;;;4.85;3.30;;;;;;;;;;5022927;28;20021;-72
2021/07/07 13:36:52;;;;;;;4.65;3.08;;;;;;;;;;5024500;28;22109;-71
2021/07/07 13:39:18;;;;;;;4.43;2.85;;;;;;;;;;5024308;28;20053;-72
2021/07/07 13:41:44;;;;;;;5.82;2.60;;;;;;;;;;5023976;28;20025;-71
2021/07/07 13:44:10;;;;;;;5.03;3.08;;;;;;;;;;5022428;28;20026;-71
2021/07/07 13:46:37;;;;;;;5.45;2.90;;;;;;;;;;5023957;28;20040;-71
2021/07/07 13:49:03;;;;;;;4.50;2.88;;;;;;;;;;5023932;28;20037;-72
2021/07/07 13:51:29;;;;;;;9.00;3.13;;;;;;;;;;5023569;28;20037;-72
2021/07/07 13:53:56;;;;;;;6.55;2.90;;;;;;;;;;5023832;28;20464;-72
2021/07/07 13:56:23;;;;;;;4.68;2.42;;;;;;;;;;5022756;28;20021;-71
2021/07/07 13:58:49;;;;;;;4.93;2.72;;;;;;;;;;5023671;28;20025;-74
2021/07/07 14:01:15;;;;;;;5.88;2.80;;;;;;;;;;5023381;28;20120;-72
2021/07/07 14:03:42;;;;;;;5.03;2.50;;;;;;;;;;5024270;28;20609;-72
2021/07/07 14:06:08;;;;;;;4.47;2.22;;;;;;;;;;5023815;28;20381;-72
2021/07/07 14:08:34;;;;;;;4.32;2.60;;;;;;;;;;5023744;28;20049;-74
2021/07/07 14:11:04;;;;;;;4.28;2.72;;;;;;;;;;5022405;28;20052;-73
2021/07/07 14:13:30;;;;;;;8.57;2.83;;;;;;;;;;5021971;28;20491;-73
2021/07/07 14:15:59;;;;;;;2.40;2.20;;;;;;;;;;5023712;28;20080;-72
2021/07/07 14:18:25;;;;;;;4.18;2.70;;;;;;;;;;5023421;28;20038;-74
2021/07/07 14:20:52;;;;;;;4.50;2.88;;;;;;;;;;5023417;28;20021;-72
2021/07/07 14:23:18;;;;;;;2.97;2.28;;;;;;;;;;5023667;28;20167;-72
2021/07/07 14:25:44;;;;;;;7.07;2.67;;;;;;;;;;5019514;28;20032;-72
2021/07/07 14:28:11;;;;;;;6.97;2.72;;;;;;;;;;5023515;28;20040;-72
2021/07/07 14:30:37;;;;;;;3.88;2.55;;;;;;;;;;5023084;28;20033;-72
2021/07/07 14:33:05;;;;;;;5.60;2.53;;;;;;;;;;5023518;28;20036;-73
2021/07/07 14:35:31;;;;;;;7.55;3.03;;;;;;;;;;5022108;28;20036;-72
2021/07/07 14:37:57;;;;;;;4.90;2.85;;;;;;;;;;5023383;28;20533;-72
2021/07/07 14:40:23;;;;;;;6.95;2.83;;;;;;;;;;5023041;28;20025;-74
2021/07/07 14:42:50;;;;;;;4.93;2.83;;;;;;;;;;5022445;28;20044;-73
2021/07/07 14:45:16;;;;;;;3.33;2.40;;;;;;;;;;5020456;28;20626;-76
2021/07/07 14:47:42;;;;;;;3.30;2.15;;;;;;;;;;5022874;28;20036;-75